Government of Jersey

Home Log in

Channel Islands Terminal Aerodrome Forecasts (TAFs)

Jersey Airport - EGJJ

EGJJ 222003Z 2221/2306 04005KT 9999 FEW012 BECMG 2304/2306 32010KT PROB30 TEMPO 2223/2305 5000 BR MIFG=

Guernsey Airport - EGJB

EGJB 222003Z 2221/2306 36004KT 9999 FEW010 BECMG 2304/2306 30010KT PROB30 TEMPO 2223/2305 5000 BR MIFG=

Alderney Airport - EGJA

EGJA 221748Z 2217/2300 CNL=